Time;durP1;ratioP1;P1;durP2;ratioP2;P2;SDS_P1;SDS_P2;PMS_P1;PMS_P2;Temp;Humidity;BMP_temperature;BMP_pressure;BME280_temperature;BME280_humidity;BME280_pressure;Samples;Min_cycle;Max_cycle;Signal;HPM_P1;HPM_P2
2023/03/14 00:00:22;;;;;;;15.73;2.83;;;;;;;9.69;87.33;98850.31;5051319;28;20032;-73
2023/03/14 00:02:52;;;;;;;9.88;2.05;;;;;;;9.68;87.30;98846.03;5053655;28;20353;-73
2023/03/14 00:05:17;;;;;;;15.70;2.22;;;;;;;9.68;87.49;98846.03;5049392;28;20054;-73
2023/03/14 00:07:42;;;;;;;14.68;2.50;;;;;;;9.67;87.51;98846.97;5050613;28;20078;-73
2023/03/14 00:10:12;;;;;;;10.48;2.10;;;;;;;9.66;87.43;98834.84;5051728;28;20043;-73
2023/03/14 00:12:37;;;;;;;10.93;1.70;;;;;;;9.64;87.40;98841.94;5052646;28;20289;-73
2023/03/14 00:15:04;;;;;;;9.65;1.92;;;;;;;9.61;87.42;98838.63;5052637;28;20074;-73
2023/03/14 00:17:30;;;;;;;6.38;1.70;;;;;;;9.59;87.64;98848.34;5050356;28;20047;-73
2023/03/14 00:19:55;;;;;;;10.18;1.58;;;;;;;9.57;88.38;98852.00;5056761;28;20044;-73
2023/03/14 00:22:21;;;;;;;11.25;2.00;;;;;;;9.56;88.89;98863.38;5056690;28;20017;-73
2023/03/14 00:24:46;;;;;;;19.35;1.95;;;;;;;9.54;89.37;98854.81;5057324;28;20239;-73
2023/03/14 00:27:12;;;;;;;14.88;2.15;;;;;;;9.51;90.51;98862.88;5060995;28;20036;-73
2023/03/14 00:29:37;;;;;;;6.15;1.40;;;;;;;9.48;90.89;98847.38;5060333;28;20033;-73
2023/03/14 00:32:03;;;;;;;13.25;2.67;;;;;;;9.44;91.03;98857.22;5061288;28;20133;-73
2023/03/14 00:34:29;;;;;;;10.55;2.15;;;;;;;9.42;91.65;98827.72;5060222;28;20099;-73
2023/03/14 00:36:55;;;;;;;12.45;2.00;;;;;;;9.41;91.71;98841.75;5061540;28;20348;-73
2023/03/14 00:39:20;;;;;;;18.27;2.70;;;;;;;9.38;91.82;98841.94;5060362;28;20056;-73
2023/03/14 00:41:45;;;;;;;9.13;2.30;;;;;;;9.36;91.75;98847.28;5061503;28;20110;-73
2023/03/14 00:44:11;;;;;;;7.55;1.80;;;;;;;9.36;91.99;98846.44;5061021;28;20123;-73
2023/03/14 00:46:36;;;;;;;15.07;2.60;;;;;;;9.35;92.65;98858.69;5060315;28;20029;-73
2023/03/14 00:49:02;;;;;;;14.48;2.40;;;;;;;9.35;92.48;98863.06;5061169;28;20116;-73
2023/03/14 00:51:27;;;;;;;14.00;2.30;;;;;;;9.34;93.00;98861.41;5060186;28;20344;-73
2023/03/14 00:53:52;;;;;;;14.68;2.80;;;;;;;9.32;93.25;98861.50;5060662;28;20045;-73
2023/03/14 00:56:18;;;;;;;14.25;2.47;;;;;;;9.32;93.39;98887.63;5060172;28;20100;-73
2023/03/14 00:58:43;;;;;;;13.68;2.10;;;;;;;9.30;93.74;98878.22;5060721;28;20127;-73
2023/03/14 01:01:18;;;;;;;13.48;2.45;;;;;;;9.29;94.01;98869.53;5060119;28;20293;-73
2023/03/14 01:03:43;;;;;;;20.05;3.28;;;;;;;9.26;94.22;98867.13;5060178;28;20036;-73
2023/03/14 01:06:12;;;;;;;15.95;2.15;;;;;;;9.24;94.20;98863.78;5060238;28;20531;-73
2023/03/14 01:08:38;;;;;;;11.20;1.85;;;;;;;9.25;94.34;98859.41;5056199;28;20654;-73
2023/03/14 01:11:13;;;;;;;13.38;1.77;;;;;;;9.25;94.25;98847.16;5060360;28;20044;-73
2023/03/14 01:13:38;;;;;;;9.55;1.63;;;;;;;9.23;94.54;98836.00;5059849;28;20266;-73
2023/03/14 01:16:07;;;;;;;13.43;2.38;;;;;;;9.21;94.34;98825.66;5060363;28;20037;-73
2023/03/14 01:18:37;;;;;;;12.70;2.38;;;;;;;9.22;94.41;98826.47;5059694;28;20036;-73
2023/03/14 01:21:04;;;;;;;8.32;2.08;;;;;;;9.22;94.73;98842.13;5060217;28;20090;-73
2023/03/14 01:23:29;;;;;;;12.95;2.28;;;;;;;9.22;94.65;98831.69;5059443;28;20078;-73
2023/03/14 01:25:55;;;;;;;9.35;2.05;;;;;;;9.22;94.90;98849.97;5060621;28;20037;-73
2023/03/14 01:28:20;;;;;;;18.25;2.40;;;;;;;9.22;94.74;98852.59;5059891;28;20228;-73
2023/03/14 01:30:45;;;;;;;9.02;1.73;;;;;;;9.22;94.59;98842.13;5059881;28;20335;-73
2023/03/14 01:33:12;;;;;;;12.20;2.00;;;;;;;9.22;94.49;98843.00;5059971;28;20037;-73
2023/03/14 01:35:38;;;;;;;10.98;2.08;;;;;;;9.21;94.70;98838.69;5059656;28;20037;-73
2023/03/14 01:38:03;;;;;;;12.23;2.35;;;;;;;9.22;94.47;98850.84;5051703;28;20052;-73
2023/03/14 01:40:29;;;;;;;12.35;2.10;;;;;;;9.21;94.80;98840.47;5059401;28;20049;-73
2023/03/14 01:43:04;;;;;;;8.20;1.88;;;;;;;9.21;94.72;98849.16;5059995;28;20324;-73
2023/03/14 01:46:12;;;;;;;14.10;2.17;;;;;;;9.21;94.73;98851.75;5059270;28;20035;-73
2023/03/14 01:48:42;;;;;;;12.15;2.20;;;;;;;9.21;94.57;98836.09;5059020;28;20044;-73
2023/03/14 01:51:12;;;;;;;8.60;1.65;;;;;;;9.22;94.37;98834.31;5059717;28;20283;-73
2023/03/14 01:53:39;;;;;;;9.40;1.75;;;;;;;9.23;94.39;98836.81;5059142;28;20283;-73
2023/03/14 01:56:06;;;;;;;6.63;1.33;;;;;;;9.25;94.10;98835.88;5059238;28;20051;-73
2023/03/14 01:58:34;;;;;;;7.95;2.22;;;;;;;9.22;94.18;98819.50;5058988;28;20044;-73
2023/03/14 02:04:42;;;;;;;8.65;1.70;;;;;;;9.22;93.92;98819.50;4725427;28;20083;-71
2023/03/14 02:07:10;;;;;;;5.32;1.27;;;;;;;9.22;94.24;98816.03;5031980;28;20037;-71
2023/03/14 02:09:37;;;;;;;10.23;1.98;;;;;;;9.21;93.82;98833.47;5039074;28;20355;-71
2023/03/14 02:12:03;;;;;;;9.77;1.48;;;;;;;9.22;93.87;98818.63;5038502;28;20064;-71
2023/03/14 02:14:32;;;;;;;12.68;1.40;;;;;;;9.21;93.91;98809.97;5038750;28;20057;-71
2023/03/14 02:16:59;;;;;;;9.55;1.45;;;;;;;9.22;93.83;98808.19;5021419;28;20340;-71
2023/03/14 02:19:51;;;;;;;8.98;1.55;;;;;;;9.23;94.08;98800.25;5038436;28;20033;-71
2023/03/14 02:22:17;;;;;;;9.40;1.73;;;;;;;9.22;93.56;98805.56;5000785;28;20060;-71
2023/03/14 02:25:19;;;;;;;13.90;2.13;;;;;;;9.21;93.76;98812.59;5038961;28;20352;-71
2023/03/14 02:27:46;;;;;;;5.50;1.60;;;;;;;9.21;93.70;98806.53;5038929;28;20454;-71
2023/03/14 02:30:16;;;;;;;8.50;1.92;;;;;;;9.16;93.84;98809.44;5039216;28;20041;-71
2023/03/14 02:32:47;;;;;;;10.10;2.25;;;;;;;9.15;93.86;98807.78;5038631;28;20272;-71
2023/03/14 02:35:20;;;;;;;6.00;1.20;;;;;;;9.15;93.95;98802.56;5038947;28;20033;-71
2023/03/14 02:37:51;;;;;;;7.93;1.88;;;;;;;9.14;94.18;98806.09;5039029;28;20044;-71
2023/03/14 02:40:17;;;;;;;9.82;1.60;;;;;;;9.14;94.55;98803.47;5035459;28;20054;-71
2023/03/14 02:42:43;;;;;;;7.18;1.80;;;;;;;9.13;94.56;98800.97;5038243;28;20033;-71
2023/03/14 02:45:08;;;;;;;11.70;2.20;;;;;;;9.13;95.13;98795.75;5038926;28;20144;-71
2023/03/14 02:47:35;;;;;;;7.80;1.85;;;;;;;9.13;95.03;98785.31;5038024;28;20341;-71
2023/03/14 02:50:06;;;;;;;5.80;1.50;;;;;;;9.12;95.58;98781.88;5019972;28;20041;-71
2023/03/14 02:52:31;;;;;;;7.25;1.48;;;;;;;9.11;95.43;98784.56;5038299;28;20025;-71
2023/03/14 02:54:57;;;;;;;5.15;1.75;;;;;;;9.12;95.57;98794.09;5038437;28;20041;-71
2023/03/14 02:57:22;;;;;;;7.15;1.60;;;;;;;9.11;95.70;98776.75;5038430;28;20026;-71
2023/03/14 02:59:47;;;;;;;7.80;1.48;;;;;;;9.09;96.02;98778.63;5038367;28;20228;-71
2023/03/14 03:02:13;;;;;;;13.38;2.00;;;;;;;9.08;95.79;98777.78;5038844;28;20194;-71
2023/03/14 03:04:38;;;;;;;7.45;1.75;;;;;;;9.08;96.00;98775.19;4999608;28;20602;-71
2023/03/14 03:07:03;;;;;;;8.35;2.00;;;;;;;9.07;95.83;98767.44;5018908;28;20053;-71
2023/03/14 03:09:29;;;;;;;7.63;1.70;;;;;;;9.07;95.74;98770.88;5037985;28;20040;-71
2023/03/14 03:11:54;;;;;;;12.35;2.10;;;;;;;9.07;95.58;98775.28;5038170;28;20037;-71
2023/03/14 03:14:19;;;;;;;13.38;2.05;;;;;;;9.08;95.93;98774.31;5037811;28;20375;-71
2023/03/14 03:16:45;;;;;;;14.27;2.25;;;;;;;9.07;95.83;98783.94;5038180;28;20100;-71
2023/03/14 03:19:10;;;;;;;8.40;2.25;;;;;;;9.07;95.84;98775.28;5038080;28;20041;-71
2023/03/14 03:21:35;;;;;;;8.93;1.98;;;;;;;9.06;95.36;98766.63;5020203;28;20033;-71
2023/03/14 03:24:01;;;;;;;13.65;2.05;;;;;;;9.04;95.44;98778.94;5037934;28;20151;-71
2023/03/14 03:26:26;;;;;;;8.20;1.70;;;;;;;9.02;95.76;98765.13;5038065;28;20037;-71
2023/03/14 03:28:51;;;;;;;13.13;2.25;;;;;;;9.02;95.63;98771.22;5020156;28;20041;-71
2023/03/14 03:31:18;;;;;;;9.18;2.10;;;;;;;9.02;95.92;98772.97;5037226;28;20075;-71
2023/03/14 03:33:43;;;;;;;8.10;1.83;;;;;;;9.02;95.89;98770.34;5037497;28;20181;-71
2023/03/14 03:36:09;;;;;;;8.93;2.35;;;;;;;9.02;95.86;98765.13;5037734;28;20037;-71
2023/03/14 03:38:35;;;;;;;10.20;2.40;;;;;;;9.02;95.90;98768.59;5037066;28;20091;-71
2023/03/14 03:41:07;;;;;;;8.25;2.13;;;;;;;9.01;95.99;98764.31;5037790;28;20041;-71
2023/03/14 03:43:33;;;;;;;13.13;2.40;;;;;;;9.01;95.67;98759.09;5036802;28;20052;-70
2023/03/14 03:46:02;;;;;;;5.65;1.67;;;;;;;9.02;95.93;98758.16;5019811;28;20021;-70
2023/03/14 03:48:27;;;;;;;9.18;1.98;;;;;;;9.03;95.70;98765.03;5037746;28;20033;-71
2023/03/14 03:50:52;;;;;;;15.45;2.30;;;;;;;9.04;95.79;98758.06;5037132;28;20113;-71
2023/03/14 03:53:18;;;;;;;8.57;2.17;;;;;;;9.03;95.64;98762.44;5037008;28;20041;-71
2023/03/14 03:55:43;;;;;;;7.82;1.77;;;;;;;9.05;95.69;98774.56;5037766;28;20130;-71
2023/03/14 03:58:08;;;;;;;8.00;1.50;;;;;;;9.03;95.80;98774.66;5036947;28;20045;-71
2023/03/14 04:00:34;;;;;;;13.27;2.75;;;;;;;9.02;96.20;98766.00;5035988;28;20041;-72
2023/03/14 04:03:00;;;;;;;13.70;1.73;;;;;;;9.02;95.79;98771.22;5036998;28;20044;-72
2023/03/14 04:05:26;;;;;;;11.55;2.40;;;;;;;9.01;96.04;98766.91;5017999;28;20049;-72
2023/03/14 04:07:51;;;;;;;9.20;2.25;;;;;;;9.02;96.01;98771.22;5036837;28;20064;-72
2023/03/14 04:10:17;;;;;;;8.85;2.00;;;;;;;9.02;95.81;98768.59;5036664;28;20049;-72
2023/03/14 04:12:42;;;;;;;8.50;1.80;;;;;;;9.02;96.37;98770.34;5035376;28;20034;-72
2023/03/14 04:15:08;;;;;;;9.45;2.28;;;;;;;9.03;97.16;98766.81;5036612;28;20041;-72
2023/03/14 04:17:33;;;;;;;8.70;1.88;;;;;;;9.03;97.58;98774.66;5035543;28;20037;-72
2023/03/14 04:19:59;;;;;;;8.40;1.83;;;;;;;9.02;97.88;98773.81;5034934;28;20025;-72
2023/03/14 04:22:24;;;;;;;9.75;2.05;;;;;;;9.01;98.50;98772.13;5016914;28;20037;-72
2023/03/14 04:24:49;;;;;;;3.78;1.50;;;;;;;9.00;99.15;98773.09;5035184;28;20346;-72
2023/03/14 04:27:15;;;;;;;6.35;1.58;;;;;;;8.99;99.18;98763.59;5035292;28;20316;-72
2023/03/14 04:29:42;;;;;;;7.18;1.90;;;;;;;8.99;100.00;98760.97;5034925;28;20212;-72
2023/03/14 04:32:07;;;;;;;7.30;1.60;;;;;;;8.98;100.00;98763.69;5035486;28;20057;-72
2023/03/14 04:34:32;;;;;;;7.70;1.58;;;;;;;8.96;100.00;98768.16;5036200;28;20050;-72
2023/03/14 04:36:58;;;;;;;10.40;1.67;;;;;;;8.93;100.00;98758.78;5036387;28;20252;-72
2023/03/14 04:39:23;;;;;;;11.20;1.95;;;;;;;8.95;100.00;98758.66;5035925;28;20048;-72
2023/03/14 04:41:49;;;;;;;5.80;1.50;;;;;;;8.93;100.00;98758.78;5036886;28;20041;-72
2023/03/14 04:44:14;;;;;;;8.80;1.77;;;;;;;8.92;100.00;98759.72;5036629;28;20029;-72
2023/03/14 04:46:39;;;;;;;5.13;1.58;;;;;;;8.91;100.00;98754.59;5036012;28;20069;-72
2023/03/14 04:49:05;;;;;;;3.45;1.40;;;;;;;8.91;100.00;98754.59;5036308;28;20110;-72
2023/03/14 04:51:30;;;;;;;4.60;1.10;;;;;;;8.91;100.00;98752.81;5035504;28;20025;-72
2023/03/14 04:53:56;;;;;;;5.43;1.20;;;;;;;8.91;100.00;98749.34;5018591;28;20064;-72
2023/03/14 04:56:21;;;;;;;6.15;1.55;;;;;;;8.91;100.00;98752.81;5035598;28;20037;-72
2023/03/14 04:58:47;;;;;;;5.10;1.42;;;;;;;8.90;100.00;98751.16;5035936;28;20057;-72
2023/03/14 05:01:12;;;;;;;5.30;1.80;;;;;;;8.89;100.00;98746.84;5036175;28;20232;-72
2023/03/14 05:03:37;;;;;;;3.60;1.30;;;;;;;8.90;100.00;98756.38;5036103;28;20076;-72
2023/03/14 05:06:04;;;;;;;9.27;1.55;;;;;;;8.90;100.00;98751.16;5041013;28;20064;-72
2023/03/14 05:08:29;;;;;;;9.55;1.60;;;;;;;8.91;100.00;98751.97;5055205;28;20340;-73
2023/03/14 05:10:56;;;;;;;8.80;1.83;;;;;;;8.88;100.00;98745.19;5056434;28;20019;-73
2023/03/14 05:13:22;;;;;;;5.25;1.73;;;;;;;8.88;100.00;98744.34;5041356;28;20043;-73
2023/03/14 05:15:48;;;;;;;11.93;1.90;;;;;;;8.87;100.00;98747.91;5060388;28;20041;-73
2023/03/14 05:18:13;;;;;;;6.15;1.80;;;;;;;8.86;100.00;98751.44;5060111;28;20131;-73
2023/03/14 05:20:39;;;;;;;5.03;1.80;;;;;;;8.82;100.00;98750.81;5059322;28;20082;-73
2023/03/14 05:23:04;;;;;;;5.72;1.70;;;;;;;8.78;100.00;98744.13;5060092;28;20033;-73
2023/03/14 05:25:29;;;;;;;3.38;1.63;;;;;;;8.77;100.00;98739.88;5059769;28;20340;-73
2023/03/14 05:27:55;;;;;;;4.03;2.25;;;;;;;8.76;100.00;98743.41;5059699;28;21150;-73
2023/03/14 05:30:21;;;;;;;7.57;2.55;;;;;;;8.73;100.00;98804.47;5059531;28;20032;-73
2023/03/14 05:32:47;;;;;;;7.28;2.72;;;;;;;8.73;100.00;98812.31;5059671;28;20036;-73
2023/03/14 05:35:12;;;;;;;11.82;1.77;;;;;;;8.56;100.00;98816.00;5059466;28;20308;-73
2023/03/14 05:37:38;;;;;;;9.55;1.55;;;;;;;8.50;100.00;98828.59;5059282;28;20220;-73
2023/03/14 05:40:06;;;;;;;2.35;1.08;;;;;;;8.34;100.00;98837.38;5059321;28;20305;-73
2023/03/14 05:42:31;;;;;;;6.63;1.23;;;;;;;8.27;100.00;98842.13;5058848;28;20091;-73
2023/03/14 05:44:57;;;;;;;6.50;1.00;;;;;;;8.15;100.00;98842.91;5059253;28;20036;-73
2023/03/14 05:47:22;;;;;;;7.00;1.30;;;;;;;8.07;100.00;98858.19;5058403;28;20032;-73
2023/03/14 05:49:48;;;;;;;9.80;1.25;;;;;;;8.00;100.00;98860.31;5059181;28;20048;-73
2023/03/14 05:52:14;;;;;;;5.82;1.13;;;;;;;7.95;100.00;98864.16;5058921;28;20033;-73
2023/03/14 05:54:39;;;;;;;3.05;0.55;;;;;;;7.82;100.00;98870.13;5058860;28;20033;-73
2023/03/14 05:57:05;;;;;;;4.35;0.98;;;;;;;7.78;100.00;98883.41;5059793;28;20040;-73
2023/03/14 05:59:30;;;;;;;8.13;1.10;;;;;;;7.76;100.00;98887.88;5058926;28;20115;-73
2023/03/14 06:01:55;;;;;;;2.83;0.50;;;;;;;7.71;100.00;98895.13;5059455;28;20075;-73
2023/03/14 06:04:21;;;;;;;4.30;0.70;;;;;;;7.67;100.00;98899.69;5059053;28;20041;-73
2023/03/14 06:06:46;;;;;;;5.70;0.85;;;;;;;7.66;100.00;98896.25;5058769;28;20405;-73
2023/03/14 06:09:11;;;;;;;2.95;1.00;;;;;;;7.62;100.00;98907.81;5058882;28;20104;-73
2023/03/14 06:11:37;;;;;;;6.95;1.10;;;;;;;7.49;100.00;98914.66;5058916;28;20057;-73
2023/03/14 06:14:02;;;;;;;3.78;0.82;;;;;;;7.46;100.00;98913.06;5058200;28;20340;-73
2023/03/14 06:16:28;;;;;;;5.55;0.75;;;;;;;7.43;100.00;98921.06;5057321;28;20063;-73
2023/03/14 06:18:53;;;;;;;3.65;0.90;;;;;;;7.38;100.00;98928.28;5058428;28;20106;-73
2023/03/14 06:21:19;;;;;;;5.57;0.70;;;;;;;7.34;100.00;98921.59;5058129;28;20032;-72
2023/03/14 06:23:45;;;;;;;4.82;0.90;;;;;;;7.35;100.00;98931.09;5055872;28;20048;-73
2023/03/14 06:26:11;;;;;;;7.85;1.05;;;;;;;7.38;100.00;98925.69;5055170;28;20115;-73
2023/03/14 06:28:37;;;;;;;3.28;0.75;;;;;;;7.35;100.00;98936.31;5065119;28;20036;-73
2023/03/14 06:31:03;;;;;;;2.15;0.63;;;;;;;7.30;100.00;98949.56;5065125;28;20033;-73
2023/03/14 06:33:28;;;;;;;1.88;0.55;;;;;;;7.25;100.00;98951.59;5060845;28;20044;-73
2023/03/14 06:35:54;;;;;;;1.70;0.32;;;;;;;7.23;100.00;98965.63;5060038;28;20040;-73
2023/03/14 06:38:19;;;;;;;4.63;0.90;;;;;;;7.21;100.00;98983.13;5056943;28;20112;-73
2023/03/14 06:40:45;;;;;;;5.20;0.75;;;;;;;7.18;100.00;98994.53;5058103;28;20270;-73
2023/03/14 06:43:10;;;;;;;2.88;0.70;;;;;;;7.21;100.00;98991.75;5058175;28;20043;-73
2023/03/14 06:45:36;;;;;;;2.30;0.75;;;;;;;7.20;100.00;98999.66;5057570;28;20064;-73
2023/03/14 06:48:01;;;;;;;3.83;0.63;;;;;;;7.21;100.00;99012.59;5063855;28;20323;-73
2023/03/14 06:50:26;;;;;;;0.77;0.40;;;;;;;7.27;100.00;99022.63;5057074;28;20214;-73
2023/03/14 06:52:52;;;;;;;8.60;1.25;;;;;;;7.26;100.00;99033.16;5057292;28;20066;-73
2023/03/14 06:55:17;;;;;;;6.75;0.90;;;;;;;7.24;100.00;99035.00;5056605;28;20049;-72
2023/03/14 06:57:43;;;;;;;7.68;1.30;;;;;;;7.25;100.00;99036.69;5060880;28;20047;-73
2023/03/14 07:00:10;;;;;;;3.58;0.60;;;;;;;7.22;100.00;99049.88;5069341;28;20041;-73
2023/03/14 07:02:36;;;;;;;5.55;1.17;;;;;;;7.14;100.00;99063.31;5057334;28;20037;-73
2023/03/14 07:05:01;;;;;;;4.85;1.20;;;;;;;7.10;100.00;99073.06;5060543;28;20074;-73
2023/03/14 07:07:27;;;;;;;10.52;1.48;;;;;;;7.10;100.00;99086.06;5042088;28;20083;-73
2023/03/14 07:09:52;;;;;;;5.60;1.38;;;;;;;7.11;100.00;99079.09;5055363;28;20090;-73
2023/03/14 07:12:18;;;;;;;4.85;1.10;;;;;;;7.14;100.00;99080.72;5071004;28;20313;-73
2023/03/14 07:14:43;;;;;;;8.43;1.20;;;;;;;7.10;100.00;99090.44;5030502;28;20045;-73
2023/03/14 07:17:09;;;;;;;6.57;1.30;;;;;;;7.08;100.00;99094.91;5057254;28;20469;-73
2023/03/14 07:19:34;;;;;;;12.30;1.90;;;;;;;7.01;100.00;99120.41;5056336;28;20040;-73
2023/03/14 07:21:59;;;;;;;14.02;1.70;;;;;;;6.99;100.00;99118.81;5055298;28;20022;-73
2023/03/14 07:24:25;;;;;;;14.18;2.17;;;;;;;6.96;100.00;99116.38;5058345;28;20044;-73
2023/03/14 07:26:50;;;;;;;5.30;1.10;;;;;;;6.99;100.00;99134.44;5056447;28;20355;-73
2023/03/14 07:29:15;;;;;;;4.32;1.05;;;;;;;6.99;100.00;99135.28;5058039;28;20068;-73
2023/03/14 07:31:41;;;;;;;7.43;1.35;;;;;;;6.98;100.00;99149.19;5074310;28;20028;-73
2023/03/14 07:34:06;;;;;;;12.32;2.00;;;;;;;6.96;100.00;99158.84;5058320;28;20052;-73
2023/03/14 07:36:32;;;;;;;16.63;1.33;;;;;;;6.93;100.00;99177.25;5057024;28;20064;-73
2023/03/14 07:38:57;;;;;;;8.85;1.13;;;;;;;6.91;100.00;99177.31;5057699;28;20063;-73
2023/03/14 07:41:23;;;;;;;4.35;1.02;;;;;;;6.92;100.00;99192.00;5056160;28;20335;-73
2023/03/14 07:43:48;;;;;;;6.43;1.33;;;;;;;6.94;100.00;99202.31;5057429;28;20064;-73
2023/03/14 07:46:14;;;;;;;4.78;0.88;;;;;;;6.98;100.00;99210.81;5039376;28;20336;-73
2023/03/14 07:48:40;;;;;;;2.50;0.70;;;;;;;7.02;100.00;99233.16;5058149;28;20041;-73
2023/03/14 07:51:06;;;;;;;3.85;1.00;;;;;;;6.99;100.00;99252.41;5062686;28;20198;-73
2023/03/14 07:53:31;;;;;;;1.40;0.45;;;;;;;6.96;100.00;99262.94;5056573;28;20045;-73
2023/03/14 07:55:56;;;;;;;3.67;0.60;;;;;;;6.85;100.00;99267.88;5048546;28;20367;-73
2023/03/14 07:58:22;;;;;;;4.50;0.82;;;;;;;6.71;100.00;99284.16;5037938;28;20041;-73
2023/03/14 08:00:49;;;;;;;7.60;0.93;;;;;;;6.67;100.00;99296.47;5039239;28;20051;-73
2023/03/14 08:03:14;;;;;;;5.22;0.93;;;;;;;6.66;100.00;99306.97;5037880;28;20044;-73
2023/03/14 08:05:41;;;;;;;7.28;1.02;;;;;;;6.41;98.90;99318.56;5039671;28;20044;-73
2023/03/14 08:08:07;;;;;;;6.30;1.05;;;;;;;6.37;99.61;99326.56;5040023;28;20105;-73
2023/03/14 08:10:33;;;;;;;6.32;1.02;;;;;;;6.36;100.00;99335.28;5039662;28;20116;-73
2023/03/14 08:13:00;;;;;;;2.65;0.75;;;;;;;6.30;99.83;99339.84;5041265;28;20037;-73
2023/03/14 08:15:28;;;;;;;9.88;1.50;;;;;;;6.23;99.68;99355.81;5039057;28;20112;-73
2023/03/14 08:17:53;;;;;;;4.25;0.90;;;;;;;6.23;99.85;99367.06;5040786;28;20489;-73
2023/03/14 08:20:21;;;;;;;5.45;1.20;;;;;;;6.26;100.00;99382.53;5035744;28;20037;-73
2023/03/14 08:22:46;;;;;;;8.50;0.98;;;;;;;6.30;100.00;99388.44;5039467;28;20082;-73
2023/03/14 08:25:12;;;;;;;4.60;0.80;;;;;;;6.22;99.04;99396.59;5038715;28;20068;-73
2023/03/14 08:27:38;;;;;;;6.75;1.10;;;;;;;6.14;98.86;99429.88;5037450;28;20374;-73
2023/03/14 08:30:05;;;;;;;7.70;0.75;;;;;;;6.13;99.02;99426.44;5028535;28;20261;-72
2023/03/14 08:32:30;;;;;;;10.65;1.45;;;;;;;6.14;99.15;99445.47;5035725;28;20288;-72
2023/03/14 08:34:56;;;;;;;6.63;1.20;;;;;;;6.12;98.90;99452.50;5034627;28;20060;-72
2023/03/14 08:37:21;;;;;;;3.97;1.00;;;;;;;6.02;98.50;99453.81;5032656;28;20044;-73
2023/03/14 08:39:47;;;;;;;5.03;0.80;;;;;;;5.98;98.55;99509.44;5037383;28;20037;-72
2023/03/14 08:42:12;;;;;;;2.30;0.60;;;;;;;5.94;98.48;99485.28;5037833;28;20096;-73
2023/03/14 08:44:38;;;;;;;5.05;0.82;;;;;;;5.90;98.18;99492.38;5038203;28;20044;-72
2023/03/14 08:47:03;;;;;;;5.10;1.15;;;;;;;5.83;95.40;99506.53;5039315;28;20111;-73
2023/03/14 08:49:28;;;;;;;5.03;0.77;;;;;;;5.79;94.45;99530.97;5038847;28;20125;-72
2023/03/14 08:51:54;;;;;;;6.10;0.68;;;;;;;5.80;94.31;99531.81;5041531;28;20356;-72
2023/03/14 08:54:19;;;;;;;2.85;0.70;;;;;;;5.78;94.55;99542.25;5042207;28;20369;-73
2023/03/14 08:56:45;;;;;;;3.60;0.68;;;;;;;5.76;94.06;99547.50;5041733;28;20041;-72
2023/03/14 08:59:10;;;;;;;6.15;1.13;;;;;;;5.78;94.03;99555.25;5040829;28;20044;-72
2023/03/14 09:01:36;;;;;;;3.28;0.60;;;;;;;5.82;94.56;99561.16;5039389;28;20036;-72
2023/03/14 09:04:01;;;;;;;4.80;0.90;;;;;;;5.86;94.97;99571.38;5038178;28;20921;-72
2023/03/14 09:06:27;;;;;;;3.80;0.65;;;;;;;5.91;94.95;99582.44;5037539;28;20053;-72
2023/03/14 09:08:52;;;;;;;3.97;0.85;;;;;;;5.95;94.79;99581.41;5041468;28;20222;-72
2023/03/14 09:11:18;;;;;;;5.35;1.27;;;;;;;5.95;93.86;99594.41;5040928;28;20296;-72
2023/03/14 09:13:44;;;;;;;3.90;0.90;;;;;;;5.97;93.63;99607.34;5043254;28;20132;-72
2023/03/14 09:16:09;;;;;;;5.72;0.90;;;;;;;5.98;93.19;99613.38;5042016;28;20576;-72
2023/03/14 09:18:35;;;;;;;10.57;1.40;;;;;;;6.01;93.38;99624.50;5041339;28;20376;-72
2023/03/14 09:21:01;;;;;;;9.18;2.38;;;;;;;6.03;93.86;99630.47;5040163;28;20041;-72
2023/03/14 09:23:27;;;;;;;16.40;1.80;;;;;;;6.01;93.02;99642.69;5042542;28;20047;-72
2023/03/14 09:25:57;;;;;;;8.25;2.17;;;;;;;5.99;90.81;99652.31;5042691;28;20337;-72
2023/03/14 09:28:23;;;;;;;15.50;1.85;;;;;;;6.02;91.75;99656.53;5042687;28;20805;-72
2023/03/14 09:30:49;;;;;;;14.50;2.10;;;;;;;6.05;92.10;99667.63;5042620;28;20040;-72
2023/03/14 09:33:15;;;;;;;5.70;1.30;;;;;;;6.10;92.25;99677.88;5042188;28;20049;-72
2023/03/14 09:35:40;;;;;;;24.90;2.80;;;;;;;6.03;89.96;99698.03;5038715;28;20234;-72
2023/03/14 09:38:06;;;;;;;18.17;2.92;;;;;;;6.00;88.90;99715.50;5041241;28;20196;-72
2023/03/14 09:40:34;;;;;;;17.92;1.98;;;;;;;5.84;90.33;99731.69;5039467;28;20044;-72
2023/03/14 09:43:00;;;;;;;8.52;1.70;;;;;;;5.76;91.51;99739.75;5041769;28;20048;-72
2023/03/14 09:45:31;;;;;;;12.95;2.25;;;;;;;5.68;92.31;99751.38;5038759;28;20327;-72
2023/03/14 09:47:58;;;;;;;7.35;1.33;;;;;;;5.61;93.07;99753.34;5040789;28;20029;-72
2023/03/14 09:50:24;;;;;;;9.10;2.03;;;;;;;5.57;93.97;99772.56;5038901;28;20079;-72
2023/03/14 09:52:55;;;;;;;11.35;1.50;;;;;;;5.56;94.71;99773.44;5039832;28;20037;-72
2023/03/14 09:55:22;;;;;;;16.15;2.78;;;;;;;5.53;95.12;99770.94;5040346;28;20293;-72
2023/03/14 09:57:51;;;;;;;16.58;2.33;;;;;;;5.53;94.88;99773.53;5040385;28;20100;-72
2023/03/14 10:00:22;;;;;;;18.95;2.80;;;;;;;5.53;95.14;99782.22;5041564;28;20320;-72
2023/03/14 10:03:31;;;;;;;13.90;2.38;;;;;;;5.53;94.43;99795.19;5041824;28;20021;-72
2023/03/14 10:05:56;;;;;;;23.80;2.92;;;;;;;5.57;94.43;99806.31;5023583;28;20048;-72
2023/03/14 10:08:22;;;;;;;10.63;2.03;;;;;;;5.64;94.63;99812.13;5040418;28;20036;-72
2023/03/14 10:10:47;;;;;;;14.30;2.40;;;;;;;5.65;94.39;99809.47;5041070;28;20037;-72
2023/03/14 10:13:19;;;;;;;25.38;3.47;;;;;;;5.66;92.92;99825.91;5039493;28;20041;-72
2023/03/14 10:16:07;;;;;;;27.55;3.63;;;;;;;5.62;91.85;99840.78;5039544;28;20046;-72
2023/03/14 10:18:36;;;;;;;17.38;2.42;;;;;;;5.63;91.38;99859.78;5038911;28;20386;-72
2023/03/14 10:21:25;;;;;;;21.52;3.60;;;;;;;5.63;91.35;99860.63;5040285;28;20048;-72
2023/03/14 10:23:51;;;;;;;16.27;2.65;;;;;;;5.64;90.90;99866.66;5040350;28;20040;-72
2023/03/14 10:26:23;;;;;;;24.70;3.45;;;;;;;5.64;90.67;99884.84;5040735;28;20263;-72
2023/03/14 10:28:53;;;;;;;17.30;2.70;;;;;;;5.64;91.12;99901.31;5041565;28;20048;-72
2023/03/14 10:31:24;;;;;;;21.80;3.10;;;;;;;5.62;89.35;99900.50;5039243;28;20355;-72
2023/03/14 10:34:02;;;;;;;26.88;2.95;;;;;;;5.56;88.06;99913.69;5039574;28;20051;-72
2023/03/14 10:36:30;;;;;;;22.67;3.33;;;;;;;5.53;87.68;99922.44;5038373;28;20041;-72
2023/03/14 10:39:22;;;;;;;13.32;2.38;;;;;;;5.57;87.67;99944.81;5037274;28;20025;-72
2023/03/14 10:41:50;;;;;;;18.63;3.20;;;;;;;5.63;87.73;99945.50;5041456;28;20108;-72
2023/03/14 10:44:21;;;;;;;20.27;3.07;;;;;;;5.64;85.82;99967.97;5041748;28;20044;-72
2023/03/14 10:46:58;;;;;;;30.30;3.70;;;;;;;5.65;84.17;99967.91;5037766;28;20036;-72
2023/03/14 10:49:30;;;;;;;23.52;2.70;;;;;;;5.67;82.94;99976.50;5035131;28;20037;-72
2023/03/14 10:51:55;;;;;;;13.70;2.58;;;;;;;5.69;83.03;99984.25;5035807;28;20090;-72
2023/03/14 10:54:23;;;;;;;25.85;3.25;;;;;;;5.69;81.11;99985.09;5040336;28;20041;-72
2023/03/14 10:57:04;;;;;;;22.15;2.38;;;;;;;5.70;81.69;99993.75;5038429;28;20037;-72
2023/03/14 10:59:36;;;;;;;23.35;2.92;;;;;;;5.72;81.76;100004.94;5038928;28;20072;-71
2023/03/14 11:02:43;;;;;;;24.23;2.78;;;;;;;5.72;81.44;100023.13;5037291;28;20037;-72
2023/03/14 11:05:34;;;;;;;20.80;2.47;;;;;;;5.75;81.51;100016.09;5036209;28;20047;-72
2023/03/14 11:08:25;;;;;;;21.67;2.88;;;;;;;5.74;79.30;100034.31;5038075;28;20041;-72
2023/03/14 11:11:03;;;;;;;23.23;3.28;;;;;;;5.76;80.59;100045.50;5037666;28;20427;-72
2023/03/14 11:14:06;;;;;;;13.25;2.20;;;;;;;5.80;79.69;100054.03;5038450;28;20222;-72
2023/03/14 11:16:45;;;;;;;19.50;2.15;;;;;;;5.84;80.09;100066.03;5036482;28;20036;-72
2023/03/14 11:19:34;;;;;;;21.92;2.40;;;;;;;5.88;78.83;100088.44;5037879;28;20041;-72
2023/03/14 11:22:04;;;;;;;;;;;;;;;5.88;75.64;100093.63;5039983;28;20113;-72
2023/03/14 11:24:42;;;;;;;10.07;2.25;;;;;;;5.90;75.69;100102.22;5035076;28;20227;-72
2023/03/14 11:27:22;;;;;;;10.15;1.60;;;;;;;5.90;74.68;100097.88;5036175;28;20441;-71
2023/03/14 11:30:07;;;;;;;15.23;1.98;;;;;;;5.93;75.30;100115.97;5039623;28;20044;-71
2023/03/14 11:32:45;;;;;;;20.67;2.15;;;;;;;5.95;73.20;100110.72;4984658;28;20057;-72
2023/03/14 11:35:20;;;;;;;11.95;2.55;;;;;;;5.96;72.58;100131.47;5039262;28;20040;-71
2023/03/14 11:37:55;;;;;;;12.65;1.65;;;;;;;5.96;70.81;100144.47;5039329;28;20029;-72
2023/03/14 11:40:23;;;;;;;13.10;2.35;;;;;;;5.99;72.00;100148.72;5039318;28;20060;-72
2023/03/14 11:43:37;;;;;;;15.43;2.03;;;;;;;5.96;67.46;100175.66;5039129;28;20025;-71